sensor_id;sensor_type;location;lat;lon;timestamp;P1;durP1;ratioP1;P2;durP2;ratioP2
29026;SDS011;16120;48.608;9.092;2023-03-14T00:00:32;77.03;;;3.50;;
29026;SDS011;16120;48.608;9.092;2023-03-14T00:04:27;77.07;;;3.70;;
29026;SDS011;16120;48.608;9.092;2023-03-14T00:08:24;76.70;;;3.78;;
29026;SDS011;16120;48.608;9.092;2023-03-14T00:12:19;76.17;;;3.57;;
29026;SDS011;16120;48.608;9.092;2023-03-14T00:16:14;76.67;;;3.43;;
29026;SDS011;16120;48.608;9.092;2023-03-14T00:20:11;77.90;;;3.27;;
29026;SDS011;16120;48.608;9.092;2023-03-14T00:24:08;76.30;;;3.40;;
29026;SDS011;16120;48.608;9.092;2023-03-14T00:28:03;76.27;;;3.20;;
29026;SDS011;16120;48.608;9.092;2023-03-14T00:31:58;76.63;;;3.40;;
29026;SDS011;16120;48.608;9.092;2023-03-14T00:35:54;78.40;;;3.60;;
29026;SDS011;16120;48.608;9.092;2023-03-14T00:39:52;76.67;;;3.30;;
29026;SDS011;16120;48.608;9.092;2023-03-14T00:43:47;76.10;;;3.27;;
29026;SDS011;16120;48.608;9.092;2023-03-14T00:47:42;75.90;;;3.20;;
29026;SDS011;16120;48.608;9.092;2023-03-14T00:51:37;75.57;;;2.97;;
29026;SDS011;16120;48.608;9.092;2023-03-14T00:55:37;76.10;;;3.27;;
29026;SDS011;16120;48.608;9.092;2023-03-14T00:59:32;75.90;;;3.20;;
29026;SDS011;16120;48.608;9.092;2023-03-14T01:03:28;75.87;;;3.17;;
29026;SDS011;16120;48.608;9.092;2023-03-14T01:07:23;76.80;;;3.40;;
29026;SDS011;16120;48.608;9.092;2023-03-14T01:11:20;75.80;;;3.20;;
29026;SDS011;16120;48.608;9.092;2023-03-14T01:15:15;75.70;;;3.00;;
29026;SDS011;16120;48.608;9.092;2023-03-14T01:19:11;76.07;;;3.10;;
29026;SDS011;16120;48.608;9.092;2023-03-14T01:23:06;76.82;;;3.60;;
29026;SDS011;16120;48.608;9.092;2023-03-14T01:27:02;76.70;;;4.23;;
29026;SDS011;16120;48.608;9.092;2023-03-14T01:31:01;75.97;;;3.10;;
29026;SDS011;16120;48.608;9.092;2023-03-14T01:34:57;76.30;;;3.30;;
29026;SDS011;16120;48.608;9.092;2023-03-14T01:38:52;76.27;;;3.10;;
29026;SDS011;16120;48.608;9.092;2023-03-14T01:42:55;76.57;;;3.30;;
29026;SDS011;16120;48.608;9.092;2023-03-14T01:46:50;76.90;;;3.23;;
29026;SDS011;16120;48.608;9.092;2023-03-14T01:50:46;76.13;;;3.23;;
29026;SDS011;16120;48.608;9.092;2023-03-14T01:54:41;75.67;;;3.30;;
29026;SDS011;16120;48.608;9.092;2023-03-14T01:58:39;75.77;;;3.10;;
29026;SDS011;16120;48.608;9.092;2023-03-14T02:02:37;76.30;;;3.40;;
29026;SDS011;16120;48.608;9.092;2023-03-14T02:06:34;75.60;;;3.10;;
29026;SDS011;16120;48.608;9.092;2023-03-14T02:10:31;76.20;;;3.20;;
29026;SDS011;16120;48.608;9.092;2023-03-14T02:14:30;75.80;;;3.10;;
29026;SDS011;16120;48.608;9.092;2023-03-14T02:18:26;76.23;;;3.20;;
29026;SDS011;16120;48.608;9.092;2023-03-14T02:22:21;77.20;;;3.40;;
29026;SDS011;16120;48.608;9.092;2023-03-14T02:26:18;75.60;;;3.10;;
29026;SDS011;16120;48.608;9.092;2023-03-14T02:30:17;76.27;;;3.20;;
29026;SDS011;16120;48.608;9.092;2023-03-14T02:34:12;75.70;;;3.23;;
29026;SDS011;16120;48.608;9.092;2023-03-14T02:38:10;75.90;;;3.27;;
29026;SDS011;16120;48.608;9.092;2023-03-14T02:42:06;75.90;;;3.50;;
29026;SDS011;16120;48.608;9.092;2023-03-14T02:46:03;75.90;;;3.33;;
29026;SDS011;16120;48.608;9.092;2023-03-14T02:50:00;76.47;;;3.27;;
29026;SDS011;16120;48.608;9.092;2023-03-14T02:53:56;78.57;;;3.30;;
29026;SDS011;16120;48.608;9.092;2023-03-14T02:57:52;76.87;;;3.50;;
29026;SDS011;16120;48.608;9.092;2023-03-14T03:01:48;76.10;;;3.40;;
29026;SDS011;16120;48.608;9.092;2023-03-14T03:05:47;76.60;;;3.40;;
29026;SDS011;16120;48.608;9.092;2023-03-14T03:09:42;76.10;;;3.17;;
29026;SDS011;16120;48.608;9.092;2023-03-14T03:13:37;76.10;;;3.43;;
29026;SDS011;16120;48.608;9.092;2023-03-14T03:17:34;76.20;;;3.60;;
29026;SDS011;16120;48.608;9.092;2023-03-14T03:21:29;78.07;;;3.30;;
29026;SDS011;16120;48.608;9.092;2023-03-14T03:25:24;76.45;;;3.40;;
29026;SDS011;16120;48.608;9.092;2023-03-14T03:29:20;77.30;;;3.27;;
29026;SDS011;16120;48.608;9.092;2023-03-14T03:33:16;76.30;;;3.50;;
29026;SDS011;16120;48.608;9.092;2023-03-14T03:37:11;76.63;;;3.40;;
29026;SDS011;16120;48.608;9.092;2023-03-14T03:41:07;75.60;;;3.20;;
29026;SDS011;16120;48.608;9.092;2023-03-14T03:45:02;77.93;;;3.30;;
29026;SDS011;16120;48.608;9.092;2023-03-14T03:48:59;76.87;;;3.70;;
29026;SDS011;16120;48.608;9.092;2023-03-14T03:52:55;78.40;;;3.70;;
29026;SDS011;16120;48.608;9.092;2023-03-14T03:56:50;77.47;;;3.83;;
29026;SDS011;16120;48.608;9.092;2023-03-14T04:00:45;76.57;;;3.67;;
29026;SDS011;16120;48.608;9.092;2023-03-14T04:04:42;76.97;;;3.90;;
29026;SDS011;16120;48.608;9.092;2023-03-14T04:08:37;81.50;;;4.10;;
29026;SDS011;16120;48.608;9.092;2023-03-14T04:12:32;79.80;;;3.60;;
29026;SDS011;16120;48.608;9.092;2023-03-14T04:16:27;79.70;;;3.77;;
29026;SDS011;16120;48.608;9.092;2023-03-14T04:20:24;77.07;;;3.70;;
29026;SDS011;16120;48.608;9.092;2023-03-14T04:24:19;81.03;;;4.17;;
29026;SDS011;16120;48.608;9.092;2023-03-14T04:28:14;77.27;;;3.90;;
29026;SDS011;16120;48.608;9.092;2023-03-14T04:32:10;78.60;;;4.00;;
29026;SDS011;16120;48.608;9.092;2023-03-14T04:36:07;80.30;;;4.40;;
29026;SDS011;16120;48.608;9.092;2023-03-14T04:40:03;77.87;;;4.07;;
29026;SDS011;16120;48.608;9.092;2023-03-14T04:43:59;77.43;;;4.07;;
29026;SDS011;16120;48.608;9.092;2023-03-14T04:47:54;77.40;;;3.90;;
29026;SDS011;16120;48.608;9.092;2023-03-14T04:51:50;80.63;;;3.90;;
29026;SDS011;16120;48.608;9.092;2023-03-14T04:55:47;77.17;;;3.80;;
29026;SDS011;16120;48.608;9.092;2023-03-14T04:59:42;77.80;;;3.90;;
29026;SDS011;16120;48.608;9.092;2023-03-14T05:07:53;77.23;;;3.80;;
29026;SDS011;16120;48.608;9.092;2023-03-14T05:11:48;77.10;;;3.87;;
29026;SDS011;16120;48.608;9.092;2023-03-14T05:15:43;78.50;;;3.83;;
29026;SDS011;16120;48.608;9.092;2023-03-14T05:19:38;77.20;;;3.90;;
29026;SDS011;16120;48.608;9.092;2023-03-14T05:23:35;78.40;;;4.17;;
29026;SDS011;16120;48.608;9.092;2023-03-14T05:27:30;76.57;;;3.47;;
29026;SDS011;16120;48.608;9.092;2023-03-14T05:31:25;78.60;;;3.87;;
29026;SDS011;16120;48.608;9.092;2023-03-14T05:35:20;78.57;;;3.70;;
29026;SDS011;16120;48.608;9.092;2023-03-14T05:39:17;79.40;;;3.70;;
29026;SDS011;16120;48.608;9.092;2023-03-14T05:43:12;79.97;;;4.03;;
29026;SDS011;16120;48.608;9.092;2023-03-14T05:47:07;81.13;;;3.90;;
29026;SDS011;16120;48.608;9.092;2023-03-14T05:51:03;76.90;;;4.00;;
29026;SDS011;16120;48.608;9.092;2023-03-14T05:54:59;77.37;;;3.87;;
29026;SDS011;16120;48.608;9.092;2023-03-14T05:58:54;78.37;;;4.10;;
29026;SDS011;16120;48.608;9.092;2023-03-14T06:02:50;79.50;;;3.90;;
29026;SDS011;16120;48.608;9.092;2023-03-14T06:06:45;80.43;;;4.38;;
29026;SDS011;16120;48.608;9.092;2023-03-14T06:10:41;78.57;;;3.70;;
29026;SDS011;16120;48.608;9.092;2023-03-14T06:14:37;83.40;;;4.20;;
29026;SDS011;16120;48.608;9.092;2023-03-14T06:18:32;78.10;;;4.37;;
29026;SDS011;16120;48.608;9.092;2023-03-14T06:22:27;78.57;;;4.33;;
29026;SDS011;16120;48.608;9.092;2023-03-14T06:26:24;77.53;;;4.10;;
29026;SDS011;16120;48.608;9.092;2023-03-14T06:30:19;80.67;;;4.43;;
29026;SDS011;16120;48.608;9.092;2023-03-14T06:34:14;79.55;;;4.00;;
29026;SDS011;16120;48.608;9.092;2023-03-14T06:38:09;78.57;;;4.50;;
29026;SDS011;16120;48.608;9.092;2023-03-14T06:42:06;78.77;;;3.90;;
29026;SDS011;16120;48.608;9.092;2023-03-14T06:46:01;77.37;;;4.03;;
29026;SDS011;16120;48.608;9.092;2023-03-14T06:49:56;76.70;;;3.83;;
29026;SDS011;16120;48.608;9.092;2023-03-14T06:53:51;78.30;;;4.23;;
29026;SDS011;16120;48.608;9.092;2023-03-14T06:57:48;79.28;;;3.90;;
29026;SDS011;16120;48.608;9.092;2023-03-14T07:01:43;77.67;;;3.80;;
29026;SDS011;16120;48.608;9.092;2023-03-14T07:05:38;81.73;;;4.07;;
29026;SDS011;16120;48.608;9.092;2023-03-14T07:09:34;76.87;;;3.70;;
29026;SDS011;16120;48.608;9.092;2023-03-14T07:13:30;78.27;;;3.83;;
29026;SDS011;16120;48.608;9.092;2023-03-14T07:17:26;80.90;;;4.20;;
29026;SDS011;16120;48.608;9.092;2023-03-14T07:21:21;77.57;;;3.60;;
29026;SDS011;16120;48.608;9.092;2023-03-14T07:25:16;77.30;;;3.60;;
29026;SDS011;16120;48.608;9.092;2023-03-14T07:29:13;78.47;;;3.63;;
29026;SDS011;16120;48.608;9.092;2023-03-14T07:33:08;79.67;;;3.83;;
29026;SDS011;16120;48.608;9.092;2023-03-14T07:37:03;77.47;;;3.60;;
29026;SDS011;16120;48.608;9.092;2023-03-14T07:40:59;77.87;;;3.77;;
29026;SDS011;16120;48.608;9.092;2023-03-14T07:44:56;77.37;;;3.57;;
29026;SDS011;16120;48.608;9.092;2023-03-14T07:48:51;76.87;;;3.70;;
29026;SDS011;16120;48.608;9.092;2023-03-14T07:52:46;76.13;;;3.70;;
29026;SDS011;16120;48.608;9.092;2023-03-14T07:56:41;76.57;;;3.53;;
29026;SDS011;16120;48.608;9.092;2023-03-14T08:00:38;76.90;;;3.60;;
29026;SDS011;16120;48.608;9.092;2023-03-14T08:04:33;78.30;;;4.00;;
29026;SDS011;16120;48.608;9.092;2023-03-14T08:08:28;76.10;;;3.40;;
29026;SDS011;16120;48.608;9.092;2023-03-14T08:12:24;77.30;;;3.80;;
29026;SDS011;16120;48.608;9.092;2023-03-14T08:16:20;78.67;;;3.60;;
29026;SDS011;16120;48.608;9.092;2023-03-14T08:20:15;77.30;;;3.10;;
29026;SDS011;16120;48.608;9.092;2023-03-14T08:24:11;77.73;;;3.37;;
29026;SDS011;16120;48.608;9.092;2023-03-14T08:28:06;76.43;;;3.30;;
29026;SDS011;16120;48.608;9.092;2023-03-14T08:32:03;77.37;;;3.50;;
29026;SDS011;16120;48.608;9.092;2023-03-14T08:35:59;77.90;;;3.33;;
29026;SDS011;16120;48.608;9.092;2023-03-14T08:39:54;75.47;;;3.50;;
29026;SDS011;16120;48.608;9.092;2023-03-14T08:43:50;76.40;;;3.37;;
29026;SDS011;16120;48.608;9.092;2023-03-14T08:47:46;75.40;;;3.20;;
29026;SDS011;16120;48.608;9.092;2023-03-14T08:51:41;75.43;;;3.23;;
29026;SDS011;16120;48.608;9.092;2023-03-14T08:55:37;77.03;;;3.00;;
29026;SDS011;16120;48.608;9.092;2023-03-14T08:59:32;75.37;;;3.00;;
29026;SDS011;16120;48.608;9.092;2023-03-14T09:03:29;75.57;;;3.30;;
29026;SDS011;16120;48.608;9.092;2023-03-14T09:07:24;77.10;;;3.13;;
29026;SDS011;16120;48.608;9.092;2023-03-14T09:11:19;76.53;;;3.50;;
29026;SDS011;16120;48.608;9.092;2023-03-14T09:15:14;77.50;;;3.30;;
29026;SDS011;16120;48.608;9.092;2023-03-14T09:19:11;75.87;;;3.20;;
29026;SDS011;16120;48.608;9.092;2023-03-14T09:23:06;76.70;;;3.50;;
29026;SDS011;16120;48.608;9.092;2023-03-14T09:27:02;77.77;;;3.50;;
29026;SDS011;16120;48.608;9.092;2023-03-14T09:30:57;78.90;;;3.30;;
29026;SDS011;16120;48.608;9.092;2023-03-14T09:34:53;76.83;;;3.07;;
29026;SDS011;16120;48.608;9.092;2023-03-14T09:38:48;75.37;;;3.20;;
29026;SDS011;16120;48.608;9.092;2023-03-14T09:42:44;75.67;;;3.20;;
29026;SDS011;16120;48.608;9.092;2023-03-14T09:46:39;76.50;;;3.37;;
29026;SDS011;16120;48.608;9.092;2023-03-14T09:50:39;75.47;;;3.10;;
29026;SDS011;16120;48.608;9.092;2023-03-14T09:54:35;75.03;;;3.13;;
29026;SDS011;16120;48.608;9.092;2023-03-14T09:58:31;74.87;;;3.20;;
29026;SDS011;16120;48.608;9.092;2023-03-14T10:02:28;75.30;;;3.10;;
29026;SDS011;16120;48.608;9.092;2023-03-14T10:06:29;76.37;;;3.30;;
29026;SDS011;16120;48.608;9.092;2023-03-14T10:10:25;75.20;;;3.30;;
29026;SDS011;16120;48.608;9.092;2023-03-14T10:14:30;76.83;;;3.10;;
29026;SDS011;16120;48.608;9.092;2023-03-14T10:18:27;76.57;;;3.40;;
29026;SDS011;16120;48.608;9.092;2023-03-14T10:22:26;76.13;;;3.30;;
29026;SDS011;16120;48.608;9.092;2023-03-14T10:26:24;75.60;;;3.23;;
29026;SDS011;16120;48.608;9.092;2023-03-14T10:30:32;75.80;;;3.17;;
29026;SDS011;16120;48.608;9.092;2023-03-14T10:34:29;75.30;;;3.07;;
29026;SDS011;16120;48.608;9.092;2023-03-14T10:38:26;75.57;;;3.30;;
29026;SDS011;16120;48.608;9.092;2023-03-14T10:42:23;75.40;;;3.40;;
29026;SDS011;16120;48.608;9.092;2023-03-14T10:46:19;75.60;;;3.80;;
29026;SDS011;16120;48.608;9.092;2023-03-14T10:50:21;75.63;;;3.23;;
29026;SDS011;16120;48.608;9.092;2023-03-14T10:54:21;74.70;;;3.33;;
29026;SDS011;16120;48.608;9.092;2023-03-14T10:58:20;79.07;;;3.20;;
29026;SDS011;16120;48.608;9.092;2023-03-14T11:06:28;75.27;;;3.40;;
29026;SDS011;16120;48.608;9.092;2023-03-14T11:10:29;75.10;;;3.30;;
29026;SDS011;16120;48.608;9.092;2023-03-14T11:14:26;74.80;;;3.03;;
29026;SDS011;16120;48.608;9.092;2023-03-14T11:22:37;75.47;;;3.20;;
29026;SDS011;16120;48.608;9.092;2023-03-14T11:26:37;76.77;;;3.40;;
29026;SDS011;16120;48.608;9.092;2023-03-14T11:30:34;74.20;;;3.10;;
29026;SDS011;16120;48.608;9.092;2023-03-14T11:34:33;74.63;;;3.20;;
29026;SDS011;16120;48.608;9.092;2023-03-14T11:38:32;74.40;;;3.13;;
29026;SDS011;16120;48.608;9.092;2023-03-14T11:42:30;75.83;;;3.20;;
29026;SDS011;16120;48.608;9.092;2023-03-14T11:46:28;75.37;;;3.33;;
29026;SDS011;16120;48.608;9.092;2023-03-14T11:50:25;75.03;;;3.30;;
29026;SDS011;16120;48.608;9.092;2023-03-14T11:54:24;75.10;;;3.30;;
29026;SDS011;16120;48.608;9.092;2023-03-14T11:58:23;74.40;;;3.00;;
29026;SDS011;16120;48.608;9.092;2023-03-14T12:02:21;73.97;;;3.00;;
29026;SDS011;16120;48.608;9.092;2023-03-14T12:06:17;76.10;;;3.00;;
29026;SDS011;16120;48.608;9.092;2023-03-14T12:10:15;74.60;;;3.10;;
29026;SDS011;16120;48.608;9.092;2023-03-14T12:14:18;74.90;;;3.08;;
29026;SDS011;16120;48.608;9.092;2023-03-14T12:18:18;75.17;;;3.80;;
29026;SDS011;16120;48.608;9.092;2023-03-14T12:22:18;76.47;;;3.27;;
29026;SDS011;16120;48.608;9.092;2023-03-14T12:26:17;75.67;;;3.27;;
29026;SDS011;16120;48.608;9.092;2023-03-14T12:30:22;75.50;;;3.20;;
29026;SDS011;16120;48.608;9.092;2023-03-14T12:34:30;75.80;;;3.37;;
29026;SDS011;16120;48.608;9.092;2023-03-14T12:38:29;75.43;;;4.23;;
29026;SDS011;16120;48.608;9.092;2023-03-14T12:42:37;76.17;;;3.57;;
29026;SDS011;16120;48.608;9.092;2023-03-14T12:46:34;77.60;;;5.60;;
29026;SDS011;16120;48.608;9.092;2023-03-14T12:50:37;78.07;;;6.53;;
29026;SDS011;16120;48.608;9.092;2023-03-14T12:54:35;77.30;;;6.20;;
29026;SDS011;16120;48.608;9.092;2023-03-14T12:58:35;77.47;;;4.30;;
29026;SDS011;16120;48.608;9.092;2023-03-14T13:02:38;74.97;;;3.50;;
29026;SDS011;16120;48.608;9.092;2023-03-14T13:06:50;77.03;;;4.77;;
29026;SDS011;16120;48.608;9.092;2023-03-14T13:10:47;76.53;;;4.03;;
29026;SDS011;16120;48.608;9.092;2023-03-14T13:14:44;78.37;;;4.23;;
29026;SDS011;16120;48.608;9.092;2023-03-14T13:18:42;77.07;;;4.03;;
29026;SDS011;16120;48.608;9.092;2023-03-14T13:22:37;76.07;;;3.90;;
29026;SDS011;16120;48.608;9.092;2023-03-14T13:26:34;77.23;;;4.57;;
29026;SDS011;16120;48.608;9.092;2023-03-14T13:30:35;76.00;;;3.33;;
29026;SDS011;16120;48.608;9.092;2023-03-14T13:34:32;79.60;;;4.33;;
29026;SDS011;16120;48.608;9.092;2023-03-14T13:38:28;75.67;;;3.50;;
29026;SDS011;16120;48.608;9.092;2023-03-14T13:42:24;80.03;;;3.70;;
29026;SDS011;16120;48.608;9.092;2023-03-14T13:46:20;74.30;;;3.20;;
29026;SDS011;16120;48.608;9.092;2023-03-14T13:50:17;80.00;;;3.50;;
29026;SDS011;16120;48.608;9.092;2023-03-14T13:54:13;75.97;;;4.00;;
29026;SDS011;16120;48.608;9.092;2023-03-14T13:58:11;76.87;;;3.50;;
29026;SDS011;16120;48.608;9.092;2023-03-14T14:02:10;76.57;;;3.87;;
29026;SDS011;16120;48.608;9.092;2023-03-14T14:06:10;78.30;;;3.90;;
29026;SDS011;16120;48.608;9.092;2023-03-14T14:10:06;77.67;;;4.30;;
29026;SDS011;16120;48.608;9.092;2023-03-14T14:14:01;77.60;;;4.23;;
29026;SDS011;16120;48.608;9.092;2023-03-14T14:17:57;79.03;;;4.10;;
29026;SDS011;16120;48.608;9.092;2023-03-14T14:21:54;77.77;;;4.10;;
29026;SDS011;16120;48.608;9.092;2023-03-14T14:25:50;77.17;;;4.73;;
29026;SDS011;16120;48.608;9.092;2023-03-14T14:29:55;78.10;;;4.47;;
29026;SDS011;16120;48.608;9.092;2023-03-14T14:33:55;76.50;;;3.90;;
29026;SDS011;16120;48.608;9.092;2023-03-14T14:37:51;78.10;;;4.07;;
29026;SDS011;16120;48.608;9.092;2023-03-14T14:41:47;77.47;;;4.20;;
29026;SDS011;16120;48.608;9.092;2023-03-14T14:45:43;78.70;;;4.10;;
29026;SDS011;16120;48.608;9.092;2023-03-14T14:49:38;77.10;;;5.70;;
29026;SDS011;16120;48.608;9.092;2023-03-14T14:53:37;77.17;;;4.37;;
29026;SDS011;16120;48.608;9.092;2023-03-14T14:57:33;77.20;;;4.30;;
29026;SDS011;16120;48.608;9.092;2023-03-14T15:01:33;80.47;;;4.33;;
29026;SDS011;16120;48.608;9.092;2023-03-14T15:05:28;77.37;;;4.47;;
29026;SDS011;16120;48.608;9.092;2023-03-14T15:09:25;76.00;;;4.00;;
29026;SDS011;16120;48.608;9.092;2023-03-14T15:13:20;83.80;;;4.27;;
29026;SDS011;16120;48.608;9.092;2023-03-14T15:17:15;78.35;;;5.30;;
29026;SDS011;16120;48.608;9.092;2023-03-14T15:21:11;76.80;;;4.93;;
29026;SDS011;16120;48.608;9.092;2023-03-14T15:25:08;78.20;;;4.60;;
29026;SDS011;16120;48.608;9.092;2023-03-14T15:29:04;75.50;;;3.83;;
29026;SDS011;16120;48.608;9.092;2023-03-14T15:32:59;76.40;;;3.93;;
29026;SDS011;16120;48.608;9.092;2023-03-14T15:36:54;81.40;;;4.80;;
29026;SDS011;16120;48.608;9.092;2023-03-14T15:40:51;77.17;;;3.73;;
29026;SDS011;16120;48.608;9.092;2023-03-14T15:44:46;77.20;;;3.47;;
29026;SDS011;16120;48.608;9.092;2023-03-14T15:48:42;75.70;;;3.93;;
29026;SDS011;16120;48.608;9.092;2023-03-14T15:52:37;77.07;;;3.43;;
29026;SDS011;16120;48.608;9.092;2023-03-14T15:56:34;74.50;;;3.50;;
29026;SDS011;16120;48.608;9.092;2023-03-14T16:00:29;80.73;;;4.60;;
29026;SDS011;16120;48.608;9.092;2023-03-14T16:04:24;74.57;;;3.43;;
29026;SDS011;16120;48.608;9.092;2023-03-14T16:08:20;84.03;;;4.00;;
29026;SDS011;16120;48.608;9.092;2023-03-14T16:12:16;75.10;;;3.80;;
29026;SDS011;16120;48.608;9.092;2023-03-14T16:16:12;77.27;;;3.80;;
29026;SDS011;16120;48.608;9.092;2023-03-14T16:20:07;76.27;;;4.17;;
29026;SDS011;16120;48.608;9.092;2023-03-14T16:24:03;75.67;;;3.97;;
29026;SDS011;16120;48.608;9.092;2023-03-14T16:28:00;76.77;;;3.63;;
29026;SDS011;16120;48.608;9.092;2023-03-14T16:31:55;74.73;;;3.37;;
29026;SDS011;16120;48.608;9.092;2023-03-14T16:35:54;77.30;;;3.87;;
29026;SDS011;16120;48.608;9.092;2023-03-14T16:39:49;75.67;;;3.77;;
29026;SDS011;16120;48.608;9.092;2023-03-14T16:43:46;74.47;;;3.70;;
29026;SDS011;16120;48.608;9.092;2023-03-14T16:47:41;75.70;;;3.70;;
29026;SDS011;16120;48.608;9.092;2023-03-14T16:51:37;78.63;;;3.63;;
29026;SDS011;16120;48.608;9.092;2023-03-14T16:55:32;77.67;;;3.80;;
29026;SDS011;16120;48.608;9.092;2023-03-14T16:59:28;75.57;;;3.90;;
29026;SDS011;16120;48.608;9.092;2023-03-14T17:03:24;76.83;;;3.87;;
29026;SDS011;16120;48.608;9.092;2023-03-14T17:07:19;78.90;;;4.17;;
29026;SDS011;16120;48.608;9.092;2023-03-14T17:11:14;76.50;;;3.70;;
29026;SDS011;16120;48.608;9.092;2023-03-14T17:15:11;76.33;;;3.90;;
29026;SDS011;16120;48.608;9.092;2023-03-14T17:19:06;81.83;;;4.13;;
29026;SDS011;16120;48.608;9.092;2023-03-14T17:23:01;76.45;;;4.50;;
29026;SDS011;16120;48.608;9.092;2023-03-14T17:26:57;77.07;;;3.87;;
29026;SDS011;16120;48.608;9.092;2023-03-14T17:31:01;77.03;;;4.13;;
29026;SDS011;16120;48.608;9.092;2023-03-14T17:34:56;76.70;;;4.13;;
29026;SDS011;16120;48.608;9.092;2023-03-14T17:38:51;78.47;;;4.30;;
29026;SDS011;16120;48.608;9.092;2023-03-14T17:42:47;76.07;;;4.10;;
29026;SDS011;16120;48.608;9.092;2023-03-14T17:46:43;76.10;;;3.97;;
29026;SDS011;16120;48.608;9.092;2023-03-14T17:50:39;77.00;;;4.10;;
29026;SDS011;16120;48.608;9.092;2023-03-14T17:54:34;77.20;;;4.37;;
29026;SDS011;16120;48.608;9.092;2023-03-14T17:58:29;77.27;;;4.83;;
29026;SDS011;16120;48.608;9.092;2023-03-14T18:02:26;76.77;;;4.10;;
29026;SDS011;16120;48.608;9.092;2023-03-14T18:06:22;77.77;;;4.57;;
29026;SDS011;16120;48.608;9.092;2023-03-14T18:10:17;76.70;;;4.50;;
29026;SDS011;16120;48.608;9.092;2023-03-14T18:14:12;79.30;;;4.60;;
29026;SDS011;16120;48.608;9.092;2023-03-14T18:18:09;78.87;;;4.43;;
29026;SDS011;16120;48.608;9.092;2023-03-14T18:22:04;80.87;;;4.53;;
29026;SDS011;16120;48.608;9.092;2023-03-14T18:25:59;77.67;;;4.37;;
29026;SDS011;16120;48.608;9.092;2023-03-14T18:29:55;79.10;;;4.13;;
29026;SDS011;16120;48.608;9.092;2023-03-14T18:33:51;76.30;;;4.50;;
29026;SDS011;16120;48.608;9.092;2023-03-14T18:37:47;79.00;;;4.57;;
29026;SDS011;16120;48.608;9.092;2023-03-14T18:41:42;77.40;;;4.10;;
29026;SDS011;16120;48.608;9.092;2023-03-14T18:45:37;77.77;;;4.23;;
29026;SDS011;16120;48.608;9.092;2023-03-14T18:49:34;78.75;;;3.92;;
29026;SDS011;16120;48.608;9.092;2023-03-14T18:53:29;77.00;;;4.20;;
29026;SDS011;16120;48.608;9.092;2023-03-14T18:57:24;80.07;;;4.53;;
29026;SDS011;16120;48.608;9.092;2023-03-14T19:01:19;76.17;;;4.10;;
29026;SDS011;16120;48.608;9.092;2023-03-14T19:05:16;76.40;;;4.27;;
29026;SDS011;16120;48.608;9.092;2023-03-14T19:09:12;78.00;;;4.33;;
29026;SDS011;16120;48.608;9.092;2023-03-14T19:13:07;78.60;;;5.00;;
29026;SDS011;16120;48.608;9.092;2023-03-14T19:17:02;81.10;;;4.70;;
29026;SDS011;16120;48.608;9.092;2023-03-14T19:20:59;78.47;;;4.17;;
29026;SDS011;16120;48.608;9.092;2023-03-14T19:24:55;79.83;;;4.50;;
29026;SDS011;16120;48.608;9.092;2023-03-14T19:28:50;76.87;;;4.13;;
29026;SDS011;16120;48.608;9.092;2023-03-14T19:32:45;78.37;;;4.50;;
29026;SDS011;16120;48.608;9.092;2023-03-14T19:36:42;83.50;;;4.77;;
29026;SDS011;16120;48.608;9.092;2023-03-14T19:40:38;78.37;;;4.73;;
29026;SDS011;16120;48.608;9.092;2023-03-14T19:44:33;81.90;;;5.30;;
29026;SDS011;16120;48.608;9.092;2023-03-14T19:48:29;77.68;;;4.50;;
29026;SDS011;16120;48.608;9.092;2023-03-14T19:52:25;77.87;;;4.40;;
29026;SDS011;16120;48.608;9.092;2023-03-14T19:56:20;77.17;;;4.70;;
29026;SDS011;16120;48.608;9.092;2023-03-14T20:00:16;78.70;;;4.80;;
29026;SDS011;16120;48.608;9.092;2023-03-14T20:04:11;82.00;;;5.50;;
29026;SDS011;16120;48.608;9.092;2023-03-14T20:08:08;77.33;;;4.30;;
29026;SDS011;16120;48.608;9.092;2023-03-14T20:12:03;78.97;;;4.60;;
29026;SDS011;16120;48.608;9.092;2023-03-14T20:15:58;76.80;;;4.40;;
29026;SDS011;16120;48.608;9.092;2023-03-14T20:19:54;78.40;;;5.00;;
29026;SDS011;16120;48.608;9.092;2023-03-14T20:23:51;78.50;;;4.67;;
29026;SDS011;16120;48.608;9.092;2023-03-14T20:27:46;79.17;;;4.80;;
29026;SDS011;16120;48.608;9.092;2023-03-14T20:31:41;81.40;;;5.10;;
29026;SDS011;16120;48.608;9.092;2023-03-14T20:35:36;77.77;;;4.53;;
29026;SDS011;16120;48.608;9.092;2023-03-14T20:39:33;80.00;;;4.50;;
29026;SDS011;16120;48.608;9.092;2023-03-14T20:43:29;77.77;;;4.70;;
29026;SDS011;16120;48.608;9.092;2023-03-14T20:47:24;79.00;;;5.13;;
29026;SDS011;16120;48.608;9.092;2023-03-14T20:51:20;82.00;;;5.00;;
29026;SDS011;16120;48.608;9.092;2023-03-14T20:55:16;78.70;;;5.17;;
29026;SDS011;16120;48.608;9.092;2023-03-14T20:59:12;78.37;;;4.60;;
29026;SDS011;16120;48.608;9.092;2023-03-14T21:03:07;82.93;;;5.37;;
29026;SDS011;16120;48.608;9.092;2023-03-14T21:07:02;78.72;;;5.07;;
29026;SDS011;16120;48.608;9.092;2023-03-14T21:10:59;79.37;;;4.90;;
29026;SDS011;16120;48.608;9.092;2023-03-14T21:14:54;78.77;;;4.87;;
29026;SDS011;16120;48.608;9.092;2023-03-14T21:18:49;79.80;;;4.80;;
29026;SDS011;16120;48.608;9.092;2023-03-14T21:22:45;78.47;;;4.77;;
29026;SDS011;16120;48.608;9.092;2023-03-14T21:26:41;78.67;;;4.80;;
29026;SDS011;16120;48.608;9.092;2023-03-14T21:30:36;78.10;;;4.90;;
29026;SDS011;16120;48.608;9.092;2023-03-14T21:34:32;78.10;;;4.83;;
29026;SDS011;16120;48.608;9.092;2023-03-14T21:38:27;77.47;;;4.83;;
29026;SDS011;16120;48.608;9.092;2023-03-14T21:42:24;78.38;;;4.80;;
29026;SDS011;16120;48.608;9.092;2023-03-14T21:46:19;79.03;;;4.73;;
29026;SDS011;16120;48.608;9.092;2023-03-14T21:50:14;77.65;;;4.70;;
29026;SDS011;16120;48.608;9.092;2023-03-14T21:54:10;77.80;;;4.47;;
29026;SDS011;16120;48.608;9.092;2023-03-14T21:58:07;80.03;;;5.43;;
29026;SDS011;16120;48.608;9.092;2023-03-14T22:02:02;80.20;;;5.10;;
29026;SDS011;16120;48.608;9.092;2023-03-14T22:05:58;77.97;;;5.47;;
29026;SDS011;16120;48.608;9.092;2023-03-14T22:09:54;77.00;;;4.40;;
29026;SDS011;16120;48.608;9.092;2023-03-14T22:13:50;77.70;;;4.73;;
29026;SDS011;16120;48.608;9.092;2023-03-14T22:17:46;78.40;;;4.70;;
29026;SDS011;16120;48.608;9.092;2023-03-14T22:21:41;77.17;;;4.60;;
29026;SDS011;16120;48.608;9.092;2023-03-14T22:25:37;77.80;;;4.90;;
29026;SDS011;16120;48.608;9.092;2023-03-14T22:29:34;77.33;;;4.43;;
29026;SDS011;16120;48.608;9.092;2023-03-14T22:33:29;78.03;;;5.07;;
29026;SDS011;16120;48.608;9.092;2023-03-14T22:37:24;77.17;;;4.70;;
29026;SDS011;16120;48.608;9.092;2023-03-14T22:41:20;79.40;;;4.57;;
29026;SDS011;16120;48.608;9.092;2023-03-14T22:45:16;77.37;;;4.40;;
29026;SDS011;16120;48.608;9.092;2023-03-14T22:49:11;79.20;;;5.20;;
29026;SDS011;16120;48.608;9.092;2023-03-14T22:53:07;77.03;;;4.00;;
29026;SDS011;16120;48.608;9.092;2023-03-14T22:57:02;76.17;;;4.10;;
29026;SDS011;16120;48.608;9.092;2023-03-14T23:00:59;75.67;;;4.00;;
29026;SDS011;16120;48.608;9.092;2023-03-14T23:04:54;76.10;;;4.20;;
29026;SDS011;16120;48.608;9.092;2023-03-14T23:08:49;77.70;;;4.70;;
29026;SDS011;16120;48.608;9.092;2023-03-14T23:12:44;80.00;;;4.70;;
29026;SDS011;16120;48.608;9.092;2023-03-14T23:16:41;77.87;;;4.90;;
29026;SDS011;16120;48.608;9.092;2023-03-14T23:20:36;78.23;;;5.00;;
29026;SDS011;16120;48.608;9.092;2023-03-14T23:24:32;78.27;;;5.53;;
29026;SDS011;16120;48.608;9.092;2023-03-14T23:28:27;80.70;;;5.03;;
29026;SDS011;16120;48.608;9.092;2023-03-14T23:32:25;78.67;;;5.57;;